sensor_id;sensor_type;location;lat;lon;timestamp;P1;durP1;ratioP1;P2;durP2;ratioP2
83929;SDS011;73959;52.130;5.584;2024-03-08T00:00:42;40.22;;;22.13;;
83929;SDS011;73959;52.130;5.584;2024-03-08T00:03:09;40.13;;;21.92;;
83929;SDS011;73959;52.130;5.584;2024-03-08T00:05:35;45.33;;;23.40;;
83929;SDS011;73959;52.130;5.584;2024-03-08T00:08:03;46.55;;;24.58;;
83929;SDS011;73959;52.130;5.584;2024-03-08T00:10:29;42.08;;;23.00;;
83929;SDS011;73959;52.130;5.584;2024-03-08T00:12:55;41.60;;;22.55;;
83929;SDS011;73959;52.130;5.584;2024-03-08T00:15:22;43.10;;;23.70;;
83929;SDS011;73959;52.130;5.584;2024-03-08T00:17:48;41.33;;;23.92;;
83929;SDS011;73959;52.130;5.584;2024-03-08T00:20:15;40.35;;;22.52;;
83929;SDS011;73959;52.130;5.584;2024-03-08T00:22:44;43.72;;;23.13;;
83929;SDS011;73959;52.130;5.584;2024-03-08T00:25:11;40.10;;;22.08;;
83929;SDS011;73959;52.130;5.584;2024-03-08T00:27:37;40.03;;;22.33;;
83929;SDS011;73959;52.130;5.584;2024-03-08T00:30:03;42.90;;;22.33;;
83929;SDS011;73959;52.130;5.584;2024-03-08T00:32:30;42.33;;;22.83;;
83929;SDS011;73959;52.130;5.584;2024-03-08T00:34:56;45.10;;;23.90;;
83929;SDS011;73959;52.130;5.584;2024-03-08T00:37:23;41.35;;;22.15;;
83929;SDS011;73959;52.130;5.584;2024-03-08T00:39:49;40.65;;;21.85;;
83929;SDS011;73959;52.130;5.584;2024-03-08T00:42:16;41.60;;;23.27;;
83929;SDS011;73959;52.130;5.584;2024-03-08T00:44:42;41.22;;;22.60;;
83929;SDS011;73959;52.130;5.584;2024-03-08T00:47:08;44.22;;;22.75;;
83929;SDS011;73959;52.130;5.584;2024-03-08T00:49:34;42.33;;;23.52;;
83929;SDS011;73959;52.130;5.584;2024-03-08T00:52:03;43.15;;;22.38;;
83929;SDS011;73959;52.130;5.584;2024-03-08T00:54:30;41.63;;;22.85;;
83929;SDS011;73959;52.130;5.584;2024-03-08T00:56:56;46.40;;;24.60;;
83929;SDS011;73959;52.130;5.584;2024-03-08T00:59:22;47.10;;;24.58;;
83929;SDS011;73959;52.130;5.584;2024-03-08T01:01:48;44.92;;;22.02;;
83929;SDS011;73959;52.130;5.584;2024-03-08T01:04:14;49.08;;;24.38;;
83929;SDS011;73959;52.130;5.584;2024-03-08T01:06:40;39.97;;;22.63;;
83929;SDS011;73959;52.130;5.584;2024-03-08T01:09:10;43.22;;;23.73;;
83929;SDS011;73959;52.130;5.584;2024-03-08T01:11:36;39.15;;;22.52;;
83929;SDS011;73959;52.130;5.584;2024-03-08T01:14:03;41.15;;;23.25;;
83929;SDS011;73959;52.130;5.584;2024-03-08T01:16:29;42.88;;;23.00;;
83929;SDS011;73959;52.130;5.584;2024-03-08T01:18:55;38.95;;;22.30;;
83929;SDS011;73959;52.130;5.584;2024-03-08T01:21:21;45.38;;;23.80;;
83929;SDS011;73959;52.130;5.584;2024-03-08T01:23:47;44.10;;;23.95;;
83929;SDS011;73959;52.130;5.584;2024-03-08T01:26:13;43.38;;;24.25;;
83929;SDS011;73959;52.130;5.584;2024-03-08T01:28:40;39.42;;;23.08;;
83929;SDS011;73959;52.130;5.584;2024-03-08T01:31:06;41.28;;;23.45;;
83929;SDS011;73959;52.130;5.584;2024-03-08T01:33:32;44.28;;;23.33;;
83929;SDS011;73959;52.130;5.584;2024-03-08T01:35:58;42.42;;;22.23;;
83929;SDS011;73959;52.130;5.584;2024-03-08T01:38:24;45.65;;;24.48;;
83929;SDS011;73959;52.130;5.584;2024-03-08T01:40:50;44.03;;;23.42;;
83929;SDS011;73959;52.130;5.584;2024-03-08T01:43:20;39.13;;;22.33;;
83929;SDS011;73959;52.130;5.584;2024-03-08T01:45:46;42.42;;;23.17;;
83929;SDS011;73959;52.130;5.584;2024-03-08T01:48:12;41.10;;;22.35;;
83929;SDS011;73959;52.130;5.584;2024-03-08T01:50:39;36.70;;;21.38;;
83929;SDS011;73959;52.130;5.584;2024-03-08T01:53:06;41.95;;;23.85;;
83929;SDS011;73959;52.130;5.584;2024-03-08T01:55:35;40.70;;;22.67;;
83929;SDS011;73959;52.130;5.584;2024-03-08T01:58:05;40.70;;;22.67;;
83929;SDS011;73959;52.130;5.584;2024-03-08T02:00:32;41.10;;;23.02;;
83929;SDS011;73959;52.130;5.584;2024-03-08T02:02:58;43.38;;;24.10;;
83929;SDS011;73959;52.130;5.584;2024-03-08T02:05:25;42.42;;;22.90;;
83929;SDS011;73959;52.130;5.584;2024-03-08T02:07:51;39.38;;;23.65;;
83929;SDS011;73959;52.130;5.584;2024-03-08T02:10:17;41.72;;;23.45;;
83929;SDS011;73959;52.130;5.584;2024-03-08T02:12:43;41.42;;;23.20;;
83929;SDS011;73959;52.130;5.584;2024-03-08T02:15:09;45.30;;;24.38;;
83929;SDS011;73959;52.130;5.584;2024-03-08T02:17:35;40.50;;;23.45;;
83929;SDS011;73959;52.130;5.584;2024-03-08T02:20:01;46.05;;;24.38;;
83929;SDS011;73959;52.130;5.584;2024-03-08T02:22:29;39.83;;;23.08;;
83929;SDS011;73959;52.130;5.584;2024-03-08T02:24:55;41.10;;;23.42;;
83929;SDS011;73959;52.130;5.584;2024-03-08T02:27:24;40.65;;;23.27;;
83929;SDS011;73959;52.130;5.584;2024-03-08T02:29:50;39.65;;;23.35;;
83929;SDS011;73959;52.130;5.584;2024-03-08T02:32:23;44.13;;;23.88;;
83929;SDS011;73959;52.130;5.584;2024-03-08T02:34:49;42.58;;;22.88;;
83929;SDS011;73959;52.130;5.584;2024-03-08T02:37:18;41.67;;;22.73;;
83929;SDS011;73959;52.130;5.584;2024-03-08T02:39:44;41.53;;;22.80;;
83929;SDS011;73959;52.130;5.584;2024-03-08T02:42:10;40.10;;;22.52;;
83929;SDS011;73959;52.130;5.584;2024-03-08T02:44:36;40.35;;;23.88;;
83929;SDS011;73959;52.130;5.584;2024-03-08T02:47:02;40.35;;;23.58;;
83929;SDS011;73959;52.130;5.584;2024-03-08T02:49:28;45.80;;;25.40;;
83929;SDS011;73959;52.130;5.584;2024-03-08T02:51:54;44.22;;;25.52;;
83929;SDS011;73959;52.130;5.584;2024-03-08T02:54:22;41.38;;;23.48;;
83929;SDS011;73959;52.130;5.584;2024-03-08T02:56:48;40.83;;;23.60;;
83929;SDS011;73959;52.130;5.584;2024-03-08T02:59:17;42.40;;;23.15;;
83929;SDS011;73959;52.130;5.584;2024-03-08T03:01:43;39.97;;;23.70;;
83929;SDS011;73959;52.130;5.584;2024-03-08T03:04:09;40.47;;;22.95;;
83929;SDS011;73959;52.130;5.584;2024-03-08T03:06:35;42.28;;;23.65;;
83929;SDS011;73959;52.130;5.584;2024-03-08T03:09:01;40.58;;;23.85;;
83929;SDS011;73959;52.130;5.584;2024-03-08T03:11:31;41.75;;;24.42;;
83929;SDS011;73959;52.130;5.584;2024-03-08T03:13:57;41.42;;;23.83;;
83929;SDS011;73959;52.130;5.584;2024-03-08T03:16:23;41.47;;;24.35;;
83929;SDS011;73959;52.130;5.584;2024-03-08T03:18:49;43.50;;;24.70;;
83929;SDS011;73959;52.130;5.584;2024-03-08T03:21:15;42.38;;;23.80;;
83929;SDS011;73959;52.130;5.584;2024-03-08T03:23:42;43.85;;;24.92;;
83929;SDS011;73959;52.130;5.584;2024-03-08T03:26:08;42.38;;;25.13;;
83929;SDS011;73959;52.130;5.584;2024-03-08T03:28:37;41.08;;;24.23;;
83929;SDS011;73959;52.130;5.584;2024-03-08T03:31:05;39.75;;;23.27;;
83929;SDS011;73959;52.130;5.584;2024-03-08T03:33:31;37.92;;;23.13;;
83929;SDS011;73959;52.130;5.584;2024-03-08T03:35:59;38.60;;;23.88;;
83929;SDS011;73959;52.130;5.584;2024-03-08T03:38:26;44.10;;;25.63;;
83929;SDS011;73959;52.130;5.584;2024-03-08T03:40:53;43.67;;;24.52;;
83929;SDS011;73959;52.130;5.584;2024-03-08T03:43:22;42.30;;;24.98;;
83929;SDS011;73959;52.130;5.584;2024-03-08T03:45:48;44.88;;;25.02;;
83929;SDS011;73959;52.130;5.584;2024-03-08T03:48:14;40.40;;;24.80;;
83929;SDS011;73959;52.130;5.584;2024-03-08T03:50:40;42.22;;;24.05;;
83929;SDS011;73959;52.130;5.584;2024-03-08T03:53:06;41.75;;;24.67;;
83929;SDS011;73959;52.130;5.584;2024-03-08T03:55:32;41.08;;;24.25;;
83929;SDS011;73959;52.130;5.584;2024-03-08T03:57:58;43.00;;;24.52;;
83929;SDS011;73959;52.130;5.584;2024-03-08T04:00:26;40.00;;;23.92;;
83929;SDS011;73959;52.130;5.584;2024-03-08T04:02:52;41.03;;;24.77;;
83929;SDS011;73959;52.130;5.584;2024-03-08T04:05:18;43.00;;;25.13;;
83929;SDS011;73959;52.130;5.584;2024-03-08T04:07:44;40.97;;;24.75;;
83929;SDS011;73959;52.130;5.584;2024-03-08T04:10:10;40.60;;;24.52;;
83929;SDS011;73959;52.130;5.584;2024-03-08T04:12:37;39.45;;;22.88;;
83929;SDS011;73959;52.130;5.584;2024-03-08T04:15:04;42.55;;;25.52;;
83929;SDS011;73959;52.130;5.584;2024-03-08T04:17:33;44.85;;;24.90;;
83929;SDS011;73959;52.130;5.584;2024-03-08T04:20:03;41.85;;;24.88;;
83929;SDS011;73959;52.130;5.584;2024-03-08T04:22:34;40.28;;;24.00;;
83929;SDS011;73959;52.130;5.584;2024-03-08T04:25:01;42.90;;;24.35;;
83929;SDS011;73959;52.130;5.584;2024-03-08T04:27:27;44.28;;;25.42;;
83929;SDS011;73959;52.130;5.584;2024-03-08T04:29:53;45.45;;;24.58;;
83929;SDS011;73959;52.130;5.584;2024-03-08T04:32:19;41.78;;;24.10;;
83929;SDS011;73959;52.130;5.584;2024-03-08T04:34:45;44.03;;;24.55;;
83929;SDS011;73959;52.130;5.584;2024-03-08T04:37:11;43.75;;;25.17;;
83929;SDS011;73959;52.130;5.584;2024-03-08T04:39:39;40.20;;;24.58;;
83929;SDS011;73959;52.130;5.584;2024-03-08T04:42:05;42.10;;;25.52;;
83929;SDS011;73959;52.130;5.584;2024-03-08T04:44:38;43.85;;;24.95;;
83929;SDS011;73959;52.130;5.584;2024-03-08T04:47:04;44.50;;;25.88;;
83929;SDS011;73959;52.130;5.584;2024-03-08T04:49:33;42.47;;;25.40;;
83929;SDS011;73959;52.130;5.584;2024-03-08T04:52:00;43.80;;;25.92;;
83929;SDS011;73959;52.130;5.584;2024-03-08T04:54:27;43.67;;;26.08;;
83929;SDS011;73959;52.130;5.584;2024-03-08T04:56:53;44.45;;;25.20;;
83929;SDS011;73959;52.130;5.584;2024-03-08T04:59:19;44.15;;;26.27;;
83929;SDS011;73959;52.130;5.584;2024-03-08T05:01:45;42.40;;;25.55;;
83929;SDS011;73959;52.130;5.584;2024-03-08T05:04:12;45.03;;;25.63;;
83929;SDS011;73959;52.130;5.584;2024-03-08T05:06:38;43.17;;;25.48;;
83929;SDS011;73959;52.130;5.584;2024-03-08T05:09:04;46.15;;;25.98;;
83929;SDS011;73959;52.130;5.584;2024-03-08T05:11:38;43.25;;;25.33;;
83929;SDS011;73959;52.130;5.584;2024-03-08T05:14:04;44.33;;;25.92;;
83929;SDS011;73959;52.130;5.584;2024-03-08T05:16:30;45.85;;;26.17;;
83929;SDS011;73959;52.130;5.584;2024-03-08T05:18:56;41.97;;;23.92;;
83929;SDS011;73959;52.130;5.584;2024-03-08T05:21:22;46.25;;;26.58;;
83929;SDS011;73959;52.130;5.584;2024-03-08T05:23:48;43.17;;;25.73;;
83929;SDS011;73959;52.130;5.584;2024-03-08T05:26:15;44.97;;;26.27;;
83929;SDS011;73959;52.130;5.584;2024-03-08T05:28:41;48.45;;;26.30;;
83929;SDS011;73959;52.130;5.584;2024-03-08T05:31:07;42.20;;;25.45;;
83929;SDS011;73959;52.130;5.584;2024-03-08T05:33:33;46.17;;;26.33;;
83929;SDS011;73959;52.130;5.584;2024-03-08T05:35:59;42.75;;;25.30;;
83929;SDS011;73959;52.130;5.584;2024-03-08T05:38:27;43.95;;;26.60;;
83929;SDS011;73959;52.130;5.584;2024-03-08T05:40:53;43.08;;;26.40;;
83929;SDS011;73959;52.130;5.584;2024-03-08T05:43:19;47.58;;;26.70;;
83929;SDS011;73959;52.130;5.584;2024-03-08T05:45:45;43.45;;;26.50;;
83929;SDS011;73959;52.130;5.584;2024-03-08T05:48:11;41.25;;;25.15;;
83929;SDS011;73959;52.130;5.584;2024-03-08T05:50:40;43.90;;;25.83;;
83929;SDS011;73959;52.130;5.584;2024-03-08T05:53:08;44.22;;;25.50;;
83929;SDS011;73959;52.130;5.584;2024-03-08T05:55:34;43.60;;;26.95;;
83929;SDS011;73959;52.130;5.584;2024-03-08T05:58:00;44.75;;;26.48;;
83929;SDS011;73959;52.130;5.584;2024-03-08T06:00:27;43.67;;;25.88;;
83929;SDS011;73959;52.130;5.584;2024-03-08T06:02:53;43.65;;;25.70;;
83929;SDS011;73959;52.130;5.584;2024-03-08T06:05:19;46.45;;;27.35;;
83929;SDS011;73959;52.130;5.584;2024-03-08T06:07:45;40.58;;;25.38;;
83929;SDS011;73959;52.130;5.584;2024-03-08T06:10:11;41.65;;;25.63;;
83929;SDS011;73959;52.130;5.584;2024-03-08T06:12:38;42.28;;;25.10;;
83929;SDS011;73959;52.130;5.584;2024-03-08T06:15:06;43.67;;;26.70;;
83929;SDS011;73959;52.130;5.584;2024-03-08T06:17:33;46.15;;;27.75;;
83929;SDS011;73959;52.130;5.584;2024-03-08T06:20:00;46.70;;;27.13;;
83929;SDS011;73959;52.130;5.584;2024-03-08T06:22:27;46.72;;;27.10;;
83929;SDS011;73959;52.130;5.584;2024-03-08T06:24:55;44.72;;;26.30;;
83929;SDS011;73959;52.130;5.584;2024-03-08T06:27:21;45.67;;;26.52;;
83929;SDS011;73959;52.130;5.584;2024-03-08T06:29:47;43.50;;;26.40;;
83929;SDS011;73959;52.130;5.584;2024-03-08T06:32:14;44.28;;;27.50;;
83929;SDS011;73959;52.130;5.584;2024-03-08T06:34:40;45.22;;;27.00;;
83929;SDS011;73959;52.130;5.584;2024-03-08T06:37:06;46.35;;;27.65;;
83929;SDS011;73959;52.130;5.584;2024-03-08T06:39:32;43.38;;;27.02;;
83929;SDS011;73959;52.130;5.584;2024-03-08T06:42:00;50.03;;;27.95;;
83929;SDS011;73959;52.130;5.584;2024-03-08T06:44:27;46.95;;;27.73;;
83929;SDS011;73959;52.130;5.584;2024-03-08T06:46:53;44.63;;;26.77;;
83929;SDS011;73959;52.130;5.584;2024-03-08T06:49:19;48.15;;;27.60;;
83929;SDS011;73959;52.130;5.584;2024-03-08T06:51:45;46.97;;;27.88;;
83929;SDS011;73959;52.130;5.584;2024-03-08T06:54:10;48.05;;;28.33;;
83929;SDS011;73959;52.130;5.584;2024-03-08T06:56:36;48.58;;;27.13;;
83929;SDS011;73959;52.130;5.584;2024-03-08T06:59:03;49.70;;;26.88;;
83929;SDS011;73959;52.130;5.584;2024-03-08T07:01:29;46.67;;;27.50;;
83929;SDS011;73959;52.130;5.584;2024-03-08T07:03:59;49.30;;;27.52;;
83929;SDS011;73959;52.130;5.584;2024-03-08T07:06:30;47.25;;;28.20;;
83929;SDS011;73959;52.130;5.584;2024-03-08T07:08:58;47.03;;;26.65;;
83929;SDS011;73959;52.130;5.584;2024-03-08T07:11:24;44.53;;;26.73;;
83929;SDS011;73959;52.130;5.584;2024-03-08T07:13:50;44.63;;;27.08;;
83929;SDS011;73959;52.130;5.584;2024-03-08T07:16:16;45.17;;;26.60;;
83929;SDS011;73959;52.130;5.584;2024-03-08T07:18:42;45.58;;;27.30;;
83929;SDS011;73959;52.130;5.584;2024-03-08T07:21:09;46.58;;;27.20;;
83929;SDS011;73959;52.130;5.584;2024-03-08T07:23:38;46.38;;;27.15;;
83929;SDS011;73959;52.130;5.584;2024-03-08T07:26:27;45.38;;;28.08;;
83929;SDS011;73959;52.130;5.584;2024-03-08T07:28:55;44.45;;;26.88;;
83929;SDS011;73959;52.130;5.584;2024-03-08T07:31:21;45.83;;;26.77;;
83929;SDS011;73959;52.130;5.584;2024-03-08T07:33:50;44.67;;;27.33;;
83929;SDS011;73959;52.130;5.584;2024-03-08T07:36:18;46.08;;;27.13;;
83929;SDS011;73959;52.130;5.584;2024-03-08T07:38:44;49.00;;;27.40;;
83929;SDS011;73959;52.130;5.584;2024-03-08T07:41:13;48.53;;;27.70;;
83929;SDS011;73959;52.130;5.584;2024-03-08T07:43:39;44.28;;;27.10;;
83929;SDS011;73959;52.130;5.584;2024-03-08T07:46:05;47.42;;;28.15;;
83929;SDS011;73959;52.130;5.584;2024-03-08T07:48:31;47.10;;;27.63;;
83929;SDS011;73959;52.130;5.584;2024-03-08T07:50:57;48.70;;;28.27;;
83929;SDS011;73959;52.130;5.584;2024-03-08T07:53:23;46.92;;;27.67;;
83929;SDS011;73959;52.130;5.584;2024-03-08T07:55:49;47.45;;;27.17;;
83929;SDS011;73959;52.130;5.584;2024-03-08T07:58:15;44.25;;;26.92;;
83929;SDS011;73959;52.130;5.584;2024-03-08T08:00:42;41.13;;;26.27;;
83929;SDS011;73959;52.130;5.584;2024-03-08T08:03:08;41.42;;;27.02;;
83929;SDS011;73959;52.130;5.584;2024-03-08T08:05:34;42.00;;;27.35;;
83929;SDS011;73959;52.130;5.584;2024-03-08T08:08:02;46.97;;;27.98;;
83929;SDS011;73959;52.130;5.584;2024-03-08T08:10:31;39.72;;;25.52;;
83929;SDS011;73959;52.130;5.584;2024-03-08T08:12:57;43.78;;;27.15;;
83929;SDS011;73959;52.130;5.584;2024-03-08T08:15:23;45.10;;;26.25;;
83929;SDS011;73959;52.130;5.584;2024-03-08T08:17:49;39.90;;;25.88;;
83929;SDS011;73959;52.130;5.584;2024-03-08T08:20:16;44.10;;;26.92;;
83929;SDS011;73959;52.130;5.584;2024-03-08T08:22:43;47.95;;;28.25;;
83929;SDS011;73959;52.130;5.584;2024-03-08T08:25:09;42.17;;;27.58;;
83929;SDS011;73959;52.130;5.584;2024-03-08T08:27:40;44.97;;;27.30;;
83929;SDS011;73959;52.130;5.584;2024-03-08T08:30:07;48.33;;;27.98;;
83929;SDS011;73959;52.130;5.584;2024-03-08T08:32:34;40.40;;;26.65;;
83929;SDS011;73959;52.130;5.584;2024-03-08T08:35:11;39.13;;;25.88;;
83929;SDS011;73959;52.130;5.584;2024-03-08T08:37:41;41.80;;;27.10;;
83929;SDS011;73959;52.130;5.584;2024-03-08T08:40:07;45.35;;;27.05;;
83929;SDS011;73959;52.130;5.584;2024-03-08T08:42:35;40.85;;;25.60;;
83929;SDS011;73959;52.130;5.584;2024-03-08T08:45:02;41.45;;;26.10;;
83929;SDS011;73959;52.130;5.584;2024-03-08T08:47:28;39.70;;;25.67;;
83929;SDS011;73959;52.130;5.584;2024-03-08T08:49:54;56.13;;;33.03;;
83929;SDS011;73959;52.130;5.584;2024-03-08T08:52:20;78.85;;;43.13;;
83929;SDS011;73959;52.130;5.584;2024-03-08T08:54:46;60.08;;;35.03;;
83929;SDS011;73959;52.130;5.584;2024-03-08T08:57:14;89.47;;;47.05;;
83929;SDS011;73959;52.130;5.584;2024-03-08T08:59:40;47.45;;;28.80;;
83929;SDS011;73959;52.130;5.584;2024-03-08T09:02:06;43.05;;;26.65;;
83929;SDS011;73959;52.130;5.584;2024-03-08T09:04:34;47.63;;;28.70;;
83929;SDS011;73959;52.130;5.584;2024-03-08T09:07:00;42.88;;;26.45;;
83929;SDS011;73959;52.130;5.584;2024-03-08T09:09:26;47.17;;;28.17;;
83929;SDS011;73959;52.130;5.584;2024-03-08T09:11:52;42.80;;;26.25;;
83929;SDS011;73959;52.130;5.584;2024-03-08T09:14:19;46.10;;;27.95;;
83929;SDS011;73959;52.130;5.584;2024-03-08T09:16:45;38.47;;;25.10;;
83929;SDS011;73959;52.130;5.584;2024-03-08T09:19:12;40.95;;;26.48;;
83929;SDS011;73959;52.130;5.584;2024-03-08T09:21:38;42.03;;;26.05;;
83929;SDS011;73959;52.130;5.584;2024-03-08T09:24:05;41.35;;;25.77;;
83929;SDS011;73959;52.130;5.584;2024-03-08T09:26:31;40.97;;;26.23;;
83929;SDS011;73959;52.130;5.584;2024-03-08T09:28:58;38.17;;;25.00;;
83929;SDS011;73959;52.130;5.584;2024-03-08T09:31:24;39.88;;;25.45;;
83929;SDS011;73959;52.130;5.584;2024-03-08T09:33:51;39.05;;;25.23;;
83929;SDS011;73959;52.130;5.584;2024-03-08T09:36:17;37.92;;;24.90;;
83929;SDS011;73959;52.130;5.584;2024-03-08T09:38:43;37.40;;;24.27;;
83929;SDS011;73959;52.130;5.584;2024-03-08T09:41:09;39.25;;;24.83;;
83929;SDS011;73959;52.130;5.584;2024-03-08T09:43:35;38.85;;;24.60;;
83929;SDS011;73959;52.130;5.584;2024-03-08T09:46:02;39.00;;;25.05;;
83929;SDS011;73959;52.130;5.584;2024-03-08T09:48:28;37.17;;;24.35;;
83929;SDS011;73959;52.130;5.584;2024-03-08T09:50:54;38.20;;;23.58;;
83929;SDS011;73959;52.130;5.584;2024-03-08T09:53:21;36.72;;;23.63;;
83929;SDS011;73959;52.130;5.584;2024-03-08T09:55:48;34.10;;;22.83;;
83929;SDS011;73959;52.130;5.584;2024-03-08T09:58:15;35.72;;;23.52;;
83929;SDS011;73959;52.130;5.584;2024-03-08T10:00:52;33.80;;;22.83;;
83929;SDS011;73959;52.130;5.584;2024-03-08T10:03:19;41.75;;;25.83;;
83929;SDS011;73959;52.130;5.584;2024-03-08T10:05:45;42.33;;;25.58;;
83929;SDS011;73959;52.130;5.584;2024-03-08T10:08:11;34.67;;;24.00;;
83929;SDS011;73959;52.130;5.584;2024-03-08T10:10:38;39.50;;;24.67;;
83929;SDS011;73959;52.130;5.584;2024-03-08T10:13:08;34.67;;;23.40;;
83929;SDS011;73959;52.130;5.584;2024-03-08T10:15:34;37.03;;;23.90;;
83929;SDS011;73959;52.130;5.584;2024-03-08T10:18:00;39.85;;;24.15;;
83929;SDS011;73959;52.130;5.584;2024-03-08T10:20:30;37.45;;;23.55;;
83929;SDS011;73959;52.130;5.584;2024-03-08T10:23:02;34.30;;;23.20;;
83929;SDS011;73959;52.130;5.584;2024-03-08T10:25:30;36.85;;;24.63;;
83929;SDS011;73959;52.130;5.584;2024-03-08T10:27:56;37.03;;;25.05;;
83929;SDS011;73959;52.130;5.584;2024-03-08T10:30:22;41.75;;;24.35;;
83929;SDS011;73959;52.130;5.584;2024-03-08T10:32:48;36.75;;;23.20;;
83929;SDS011;73959;52.130;5.584;2024-03-08T10:35:14;35.65;;;23.17;;
83929;SDS011;73959;52.130;5.584;2024-03-08T10:40:07;33.60;;;22.35;;
83929;SDS011;73959;52.130;5.584;2024-03-08T10:42:38;30.08;;;21.77;;
83929;SDS011;73959;52.130;5.584;2024-03-08T10:45:19;34.60;;;22.95;;
83929;SDS011;73959;52.130;5.584;2024-03-08T10:47:49;32.38;;;21.40;;
83929;SDS011;73959;52.130;5.584;2024-03-08T10:50:23;30.63;;;21.67;;
83929;SDS011;73959;52.130;5.584;2024-03-08T10:52:50;29.70;;;20.75;;
83929;SDS011;73959;52.130;5.584;2024-03-08T10:55:19;28.52;;;20.40;;
83929;SDS011;73959;52.130;5.584;2024-03-08T10:57:45;29.33;;;20.83;;
83929;SDS011;73959;52.130;5.584;2024-03-08T11:00:16;32.72;;;22.10;;
83929;SDS011;73959;52.130;5.584;2024-03-08T11:02:44;35.13;;;22.08;;
83929;SDS011;73959;52.130;5.584;2024-03-08T11:05:10;34.53;;;22.00;;
83929;SDS011;73959;52.130;5.584;2024-03-08T11:07:42;29.60;;;21.58;;
83929;SDS011;73959;52.130;5.584;2024-03-08T11:10:18;27.65;;;20.05;;
83929;SDS011;73959;52.130;5.584;2024-03-08T11:12:44;29.73;;;20.05;;
83929;SDS011;73959;52.130;5.584;2024-03-08T11:15:11;28.17;;;19.63;;
83929;SDS011;73959;52.130;5.584;2024-03-08T11:20:13;33.65;;;20.95;;
83929;SDS011;73959;52.130;5.584;2024-03-08T11:22:49;46.25;;;22.17;;
83929;SDS011;73959;52.130;5.584;2024-03-08T11:25:33;34.03;;;20.02;;
83929;SDS011;73959;52.130;5.584;2024-03-08T11:28:11;28.67;;;18.48;;
83929;SDS011;73959;52.130;5.584;2024-03-08T11:31:26;34.80;;;20.65;;
83929;SDS011;73959;52.130;5.584;2024-03-08T11:33:29;32.45;;;20.33;;
83929;SDS011;73959;52.130;5.584;2024-03-08T11:36:07;30.02;;;20.35;;
83929;SDS011;73959;52.130;5.584;2024-03-08T11:38:41;29.92;;;18.15;;
83929;SDS011;73959;52.130;5.584;2024-03-08T11:41:08;24.85;;;17.90;;
83929;SDS011;73959;52.130;5.584;2024-03-08T11:43:39;29.00;;;19.88;;
83929;SDS011;73959;52.130;5.584;2024-03-08T11:46:10;33.33;;;22.42;;
83929;SDS011;73959;52.130;5.584;2024-03-08T11:48:37;33.00;;;20.40;;
83929;SDS011;73959;52.130;5.584;2024-03-08T11:51:03;31.73;;;19.75;;
83929;SDS011;73959;52.130;5.584;2024-03-08T11:53:32;27.17;;;19.50;;
83929;SDS011;73959;52.130;5.584;2024-03-08T11:56:06;24.98;;;18.42;;
83929;SDS011;73959;52.130;5.584;2024-03-08T11:58:32;27.33;;;19.05;;
83929;SDS011;73959;52.130;5.584;2024-03-08T12:01:04;27.73;;;19.50;;
83929;SDS011;73959;52.130;5.584;2024-03-08T12:03:31;26.63;;;17.77;;
83929;SDS011;73959;52.130;5.584;2024-03-08T12:06:00;28.15;;;18.63;;
83929;SDS011;73959;52.130;5.584;2024-03-08T12:08:27;26.88;;;17.85;;
83929;SDS011;73959;52.130;5.584;2024-03-08T12:10:53;26.63;;;18.88;;
83929;SDS011;73959;52.130;5.584;2024-03-08T12:13:24;27.63;;;17.98;;
83929;SDS011;73959;52.130;5.584;2024-03-08T12:15:50;24.10;;;17.15;;
83929;SDS011;73959;52.130;5.584;2024-03-08T12:18:16;24.92;;;16.85;;
83929;SDS011;73959;52.130;5.584;2024-03-08T12:20:42;24.42;;;17.75;;
83929;SDS011;73959;52.130;5.584;2024-03-08T12:23:14;22.77;;;16.88;;
83929;SDS011;73959;52.130;5.584;2024-03-08T12:25:41;22.25;;;16.13;;
83929;SDS011;73959;52.130;5.584;2024-03-08T12:28:08;23.70;;;16.38;;
83929;SDS011;73959;52.130;5.584;2024-03-08T12:30:47;20.73;;;16.55;;
83929;SDS011;73959;52.130;5.584;2024-03-08T12:33:13;25.10;;;17.25;;
83929;SDS011;73959;52.130;5.584;2024-03-08T12:35:39;46.97;;;26.42;;
83929;SDS011;73959;52.130;5.584;2024-03-08T12:38:07;46.42;;;28.80;;
83929;SDS011;73959;52.130;5.584;2024-03-08T12:40:33;28.08;;;17.85;;
83929;SDS011;73959;52.130;5.584;2024-03-08T12:43:00;25.38;;;18.05;;
83929;SDS011;73959;52.130;5.584;2024-03-08T12:45:27;24.60;;;17.23;;
83929;SDS011;73959;52.130;5.584;2024-03-08T12:47:53;27.08;;;17.88;;
83929;SDS011;73959;52.130;5.584;2024-03-08T12:50:20;23.42;;;17.45;;
83929;SDS011;73959;52.130;5.584;2024-03-08T12:52:46;27.98;;;18.63;;
83929;SDS011;73959;52.130;5.584;2024-03-08T12:55:13;27.52;;;18.88;;
83929;SDS011;73959;52.130;5.584;2024-03-08T12:57:41;25.05;;;18.08;;
83929;SDS011;73959;52.130;5.584;2024-03-08T13:00:07;26.02;;;18.33;;
83929;SDS011;73959;52.130;5.584;2024-03-08T13:02:38;24.45;;;17.95;;
83929;SDS011;73959;52.130;5.584;2024-03-08T13:05:04;25.05;;;17.75;;
83929;SDS011;73959;52.130;5.584;2024-03-08T13:07:30;24.25;;;17.98;;
83929;SDS011;73959;52.130;5.584;2024-03-08T13:09:57;27.58;;;18.60;;
83929;SDS011;73959;52.130;5.584;2024-03-08T13:12:24;24.60;;;19.13;;
83929;SDS011;73959;52.130;5.584;2024-03-08T13:14:50;29.13;;;19.00;;
83929;SDS011;73959;52.130;5.584;2024-03-08T13:17:16;25.58;;;18.02;;
83929;SDS011;73959;52.130;5.584;2024-03-08T13:19:46;23.60;;;17.70;;
83929;SDS011;73959;52.130;5.584;2024-03-08T13:22:12;23.70;;;16.75;;
83929;SDS011;73959;52.130;5.584;2024-03-08T13:24:40;25.13;;;17.67;;
83929;SDS011;73959;52.130;5.584;2024-03-08T13:27:09;25.42;;;18.17;;
83929;SDS011;73959;52.130;5.584;2024-03-08T13:29:45;25.25;;;17.67;;
83929;SDS011;73959;52.130;5.584;2024-03-08T13:32:11;22.92;;;17.35;;
83929;SDS011;73959;52.130;5.584;2024-03-08T13:34:40;25.67;;;17.80;;
83929;SDS011;73959;52.130;5.584;2024-03-08T13:37:06;25.83;;;17.95;;
83929;SDS011;73959;52.130;5.584;2024-03-08T13:39:34;23.17;;;17.23;;
83929;SDS011;73959;52.130;5.584;2024-03-08T13:42:08;24.88;;;18.00;;
83929;SDS011;73959;52.130;5.584;2024-03-08T13:44:36;24.85;;;17.73;;
83929;SDS011;73959;52.130;5.584;2024-03-08T13:47:02;26.40;;;18.05;;
83929;SDS011;73959;52.130;5.584;2024-03-08T13:49:29;23.15;;;17.13;;
83929;SDS011;73959;52.130;5.584;2024-03-08T13:51:55;25.58;;;17.48;;
83929;SDS011;73959;52.130;5.584;2024-03-08T13:54:23;24.83;;;17.10;;
83929;SDS011;73959;52.130;5.584;2024-03-08T13:56:49;23.67;;;17.15;;
83929;SDS011;73959;52.130;5.584;2024-03-08T13:59:19;24.77;;;16.92;;
83929;SDS011;73959;52.130;5.584;2024-03-08T14:01:47;25.42;;;17.60;;
83929;SDS011;73959;52.130;5.584;2024-03-08T14:04:13;22.55;;;16.92;;
83929;SDS011;73959;52.130;5.584;2024-03-08T14:06:42;24.48;;;17.75;;
83929;SDS011;73959;52.130;5.584;2024-03-08T14:09:10;23.35;;;16.75;;
83929;SDS011;73959;52.130;5.584;2024-03-08T14:11:41;23.70;;;17.55;;
83929;SDS011;73959;52.130;5.584;2024-03-08T14:14:07;26.92;;;18.08;;
83929;SDS011;73959;52.130;5.584;2024-03-08T14:16:34;24.40;;;17.80;;
83929;SDS011;73959;52.130;5.584;2024-03-08T14:19:02;24.08;;;18.00;;
83929;SDS011;73959;52.130;5.584;2024-03-08T14:21:30;23.75;;;17.02;;
83929;SDS011;73959;52.130;5.584;2024-03-08T14:23:56;25.02;;;17.75;;
83929;SDS011;73959;52.130;5.584;2024-03-08T14:26:22;24.75;;;17.75;;